This is the latest recevied weather packets stored in our database for station/object DL9LAF-4. If no packets are shown the sender has not sent any weather packets the latest 1 day(s).
| Time | Temp. | Humidity | Pressure | Rain* | Wind** | Luminosity | Snow |
|---|---|---|---|---|---|---|---|
| 1778095556 | 11.67° C | 57% | 988 hPa | 0 mm | - | - | - |
| 1778094956 | 12.22° C | 56% | 988 hPa | 0 mm | - | - | - |
| 1778094356 | 12.78° C | 55% | 988 hPa | 0 mm | - | - | - |
| 1778093756 | 12.78° C | 54% | 987.7 hPa | 0 mm | - | - | - |
| 1778093156 | 12.78° C | 53% | 987.7 hPa | 0 mm | - | - | - |
| 1778090756 | 13.89° C | 49% | 987.2 hPa | 0 mm | - | - | - |
| 1778090156 | 14.44° C | 48% | 987.2 hPa | 0 mm | - | - | - |
| 1778089556 | 15° C | 47% | 987.2 hPa | 0 mm | - | - | - |
| 1778086556 | 16.67° C | 44% | 987 hPa | 0 mm | - | - | - |
| 1778084756 | 16.67° C | 43% | 986.7 hPa | 0 mm | - | - | - |
| 1778082956 | 16.67° C | 43% | 986.7 hPa | 0 mm | - | - | - |
| 1778082356 | 16.67° C | 43% | 986.7 hPa | 0 mm | - | - | - |
| 1778081756 | 16.67° C | 43% | 986.9 hPa | 0 mm | - | - | - |
| 1778081156 | 16.67° C | 43% | 986.7 hPa | 0 mm | - | - | - |
| 1778080556 | 16.67° C | 42% | 986.7 hPa | 0 mm | - | - | - |
| 1778079956 | 17.22° C | 42% | 986.7 hPa | 0 mm | - | - | - |
| 1778078756 | 17.78° C | 43% | 986.9 hPa | 0 mm | - | - | - |
| 1778077556 | 17.78° C | 45% | 986.9 hPa | 0 mm | - | - | - |
| 1778076956 | 17.78° C | 45% | 986.9 hPa | 0 mm | - | - | - |
| 1778076356 | 17.78° C | 46% | 987 hPa | 0 mm | - | - | - |
| 1778075756 | 17.78° C | 46% | 986.9 hPa | 0 mm | - | - | - |
| 1778075156 | 17.78° C | 46% | 986.9 hPa | 0 mm | - | - | - |
| 1778074556 | 17.78° C | 46% | 986.9 hPa | 0 mm | - | - | - |
| 1778073956 | 17.78° C | 46% | 986.7 hPa | 0 mm | - | - | - |
| 1778073356 | 18.33° C | 46% | 986.5 hPa | 0 mm | - | - | - |
* Rain latest hour (hover to see other rain measurements)
** Current wind speed in m/s (hover to see current wind gust speed)